Terminal Aerodrome Forecast
Issued by NWS El Paso, TX

Current Version | Previous Version | Text Only | Print | Product List | Glossary On
Versions: 1 2 3 4 5 6 7 8 9 10 11 12
000
FTUS44 KEPZ 261100 RRA
TAFELP
TAF
KELP 261150Z 2612/2712 04006KT P6SM FEW180 BKN250
     FM262100 08008KT P6SM SCT120 OVC200
     FM270200 10008KT P6SM SCT080 BKN150=

USA.gov is the U.S. government's official web portal to all federal, state and local government web resources and services.